sensor_id;sensor_type;location;lat;lon;timestamp;pressure;altitude;pressure_sealevel;temperature;humidity
40574;BME280;26283;49.020;8.644;2022-11-02T00:01:55;99841.00;;;17.40;58.09
40574;BME280;26283;49.020;8.644;2022-11-02T00:04:20;99841.81;;;17.41;58.07
40574;BME280;26283;49.020;8.644;2022-11-02T00:06:46;99842.91;;;17.40;58.06
40574;BME280;26283;49.020;8.644;2022-11-02T00:09:11;99843.72;;;17.40;58.10
40574;BME280;26283;49.020;8.644;2022-11-02T00:11:36;99851.06;;;17.40;58.05
40574;BME280;26283;49.020;8.644;2022-11-02T00:14:02;99844.78;;;17.39;58.01
40574;BME280;26283;49.020;8.644;2022-11-02T00:16:28;99842.31;;;17.38;58.08
40574;BME280;26283;49.020;8.644;2022-11-02T00:18:55;99839.59;;;17.38;58.17
40574;BME280;26283;49.020;8.644;2022-11-02T00:21:23;99832.50;;;17.37;58.19
40574;BME280;26283;49.020;8.644;2022-11-02T00:23:50;99837.12;;;17.36;58.14
40574;BME280;26283;49.020;8.644;2022-11-02T00:26:16;99839.03;;;17.36;58.14
40574;BME280;26283;49.020;8.644;2022-11-02T00:28:42;99830.25;;;17.34;58.13
40574;BME280;26283;49.020;8.644;2022-11-02T00:31:07;99828.38;;;17.34;58.17
40574;BME280;26283;49.020;8.644;2022-11-02T00:33:33;99824.81;;;17.34;58.22
40574;BME280;26283;49.020;8.644;2022-11-02T00:35:58;99834.06;;;17.33;58.18
40574;BME280;26283;49.020;8.644;2022-11-02T00:38:24;99839.78;;;17.31;58.09
40574;BME280;26283;49.020;8.644;2022-11-02T00:40:49;99837.88;;;17.32;58.03
40574;BME280;26283;49.020;8.644;2022-11-02T00:43:15;99841.69;;;17.31;58.08
40574;BME280;26283;49.020;8.644;2022-11-02T00:45:40;99838.97;;;17.31;58.05
40574;BME280;26283;49.020;8.644;2022-11-02T00:48:05;99841.69;;;17.31;58.09
40574;BME280;26283;49.020;8.644;2022-11-02T00:50:31;99841.94;;;17.29;58.14
40574;BME280;26283;49.020;8.644;2022-11-02T00:52:56;99848.22;;;17.30;58.17
40574;BME280;26283;49.020;8.644;2022-11-02T00:55:22;99848.47;;;17.28;58.18
40574;BME280;26283;49.020;8.644;2022-11-02T00:57:47;99846.56;;;17.29;58.16
40574;BME280;26283;49.020;8.644;2022-11-02T01:00:13;99848.47;;;17.28;58.16
40574;BME280;26283;49.020;8.644;2022-11-02T01:02:39;99845.16;;;17.26;58.18
40574;BME280;26283;49.020;8.644;2022-11-02T01:05:06;99844.31;;;17.26;58.22
40574;BME280;26283;49.020;8.644;2022-11-02T01:07:32;99849.78;;;17.26;58.24
40574;BME280;26283;49.020;8.644;2022-11-02T01:09:58;99845.41;;;17.25;58.24
40574;BME280;26283;49.020;8.644;2022-11-02T01:12:23;99847.28;;;17.24;58.29
40574;BME280;26283;49.020;8.644;2022-11-02T01:14:49;99840.19;;;17.23;58.27
40574;BME280;26283;49.020;8.644;2022-11-02T01:17:15;99840.19;;;17.23;58.29
40574;BME280;26283;49.020;8.644;2022-11-02T01:19:41;99832.28;;;17.22;58.27
40574;BME280;26283;49.020;8.644;2022-11-02T01:22:06;99838.53;;;17.22;58.28
40574;BME280;26283;49.020;8.644;2022-11-02T01:24:32;99835.00;;;17.22;58.34
40574;BME280;26283;49.020;8.644;2022-11-02T01:26:57;99825.16;;;17.21;58.34
40574;BME280;26283;49.020;8.644;2022-11-02T01:29:23;99821.88;;;17.19;58.29
40574;BME280;26283;49.020;8.644;2022-11-02T01:31:48;99825.41;;;17.19;58.31
40574;BME280;26283;49.020;8.644;2022-11-02T01:34:14;99821.88;;;17.19;58.29
40574;BME280;26283;49.020;8.644;2022-11-02T01:36:40;99828.38;;;17.18;58.27
40574;BME280;26283;49.020;8.644;2022-11-02T01:39:06;99825.66;;;17.18;58.29
40574;BME280;26283;49.020;8.644;2022-11-02T01:41:31;99818.56;;;17.17;58.31
40574;BME280;26283;49.020;8.644;2022-11-02T01:43:57;99818.56;;;17.17;58.25
40574;BME280;26283;49.020;8.644;2022-11-02T01:49:02;99807.09;;;17.14;58.46
40574;BME280;26283;49.020;8.644;2022-11-02T01:51:32;99794.53;;;17.13;58.25
40574;BME280;26283;49.020;8.644;2022-11-02T01:54:03;99798.09;;;17.14;58.20
40574;BME280;26283;49.020;8.644;2022-11-02T01:56:31;99800.81;;;17.14;58.24
40574;BME280;26283;49.020;8.644;2022-11-02T01:59:00;99801.06;;;17.12;58.22
40574;BME280;26283;49.020;8.644;2022-11-02T02:01:27;99799.41;;;17.11;58.19
40574;BME280;26283;49.020;8.644;2022-11-02T02:03:55;99796.69;;;17.11;58.12
40574;BME280;26283;49.020;8.644;2022-11-02T02:06:21;99798.59;;;17.11;58.15
40574;BME280;26283;49.020;8.644;2022-11-02T02:08:48;99792.31;;;17.10;58.09
40574;BME280;26283;49.020;8.644;2022-11-02T02:11:35;99793.41;;;17.09;58.20
40574;BME280;26283;49.020;8.644;2022-11-02T02:14:19;99792.59;;;17.09;58.49
40574;BME280;26283;49.020;8.644;2022-11-02T02:27:40;99790.59;;;17.04;58.30
40574;BME280;26283;49.020;8.644;2022-11-02T02:30:08;99788.94;;;17.03;58.02
40574;BME280;26283;49.020;8.644;2022-11-02T02:32:55;99790.84;;;17.03;58.09
40574;BME280;26283;49.020;8.644;2022-11-02T02:41:02;99776.66;;;17.01;57.98
40574;BME280;26283;49.020;8.644;2022-11-02T02:43:36;99782.09;;;17.01;58.28
40574;BME280;26283;49.020;8.644;2022-11-02T02:46:27;99772.53;;;16.98;58.23
40574;BME280;26283;49.020;8.644;2022-11-02T02:48:56;99771.44;;;16.99;58.58
40574;BME280;26283;49.020;8.644;2022-11-02T02:51:29;99773.34;;;16.99;58.05
40574;BME280;26283;49.020;8.644;2022-11-02T02:54:03;99773.34;;;16.99;58.37
40574;BME280;26283;49.020;8.644;2022-11-02T02:56:35;99770.88;;;16.97;58.41
40574;BME280;26283;49.020;8.644;2022-11-02T02:59:05;99769.22;;;16.96;58.33
40574;BME280;26283;49.020;8.644;2022-11-02T03:01:32;99762.94;;;16.96;58.29
40574;BME280;26283;49.020;8.644;2022-11-02T03:03:58;99763.78;;;16.96;58.23
40574;BME280;26283;49.020;8.644;2022-11-02T03:06:25;99765.69;;;16.96;58.19
40574;BME280;26283;49.020;8.644;2022-11-02T03:11:29;99764.84;;;16.95;58.37
40574;BME280;26283;49.020;8.644;2022-11-02T03:19:04;99768.06;;;16.92;58.09
40574;BME280;26283;49.020;8.644;2022-11-02T03:21:42;99772.69;;;16.92;58.20
40574;BME280;26283;49.020;8.644;2022-11-02T03:24:13;99773.50;;;16.92;58.00
40574;BME280;26283;49.020;8.644;2022-11-02T03:29:09;99775.66;;;16.90;58.02
40574;BME280;26283;49.020;8.644;2022-11-02T03:34:37;99774.81;;;16.90;58.27
40574;BME280;26283;49.020;8.644;2022-11-02T03:37:17;99776.72;;;16.89;58.45
40574;BME280;26283;49.020;8.644;2022-11-02T03:39:49;99783.25;;;16.88;58.26
40574;BME280;26283;49.020;8.644;2022-11-02T03:42:20;99784.09;;;16.89;58.06
40574;BME280;26283;49.020;8.644;2022-11-02T03:44:51;99778.91;;;16.87;57.99
40574;BME280;26283;49.020;8.644;2022-11-02T03:47:19;99779.97;;;16.86;58.06
40574;BME280;26283;49.020;8.644;2022-11-02T03:49:46;99772.87;;;16.85;58.06
40574;BME280;26283;49.020;8.644;2022-11-02T03:52:18;99783.75;;;16.85;58.13
40574;BME280;26283;49.020;8.644;2022-11-02T03:54:54;99783.75;;;16.85;58.13
40574;BME280;26283;49.020;8.644;2022-11-02T03:57:27;99786.47;;;16.85;58.25
40574;BME280;26283;49.020;8.644;2022-11-02T04:00:26;99787.56;;;16.84;58.13
40574;BME280;26283;49.020;8.644;2022-11-02T04:02:56;99790.28;;;16.84;58.42
40574;BME280;26283;49.020;8.644;2022-11-02T04:05:30;99795.72;;;16.84;57.90
40574;BME280;26283;49.020;8.644;2022-11-02T04:07:57;99795.13;;;16.82;58.07
40574;BME280;26283;49.020;8.644;2022-11-02T04:10:41;99795.13;;;16.82;57.88
40574;BME280;26283;49.020;8.644;2022-11-02T04:13:27;99798.94;;;16.81;57.77
40574;BME280;26283;49.020;8.644;2022-11-02T04:16:11;99792.91;;;16.79;57.83
40574;BME280;26283;49.020;8.644;2022-11-02T04:18:37;99803.78;;;16.79;57.85
40574;BME280;26283;49.020;8.644;2022-11-02T04:21:21;99811.13;;;16.78;57.96
40574;BME280;26283;49.020;8.644;2022-11-02T04:23:46;99804.03;;;16.77;57.87
40574;BME280;26283;49.020;8.644;2022-11-02T04:26:30;99814.91;;;16.77;58.03
40574;BME280;26283;49.020;8.644;2022-11-02T04:28:55;99814.09;;;16.77;57.95
40574;BME280;26283;49.020;8.644;2022-11-02T04:31:21;99816.00;;;16.76;57.98
40574;BME280;26283;49.020;8.644;2022-11-02T04:33:46;99822.50;;;16.75;57.90
40574;BME280;26283;49.020;8.644;2022-11-02T04:36:11;99825.22;;;16.75;57.85
40574;BME280;26283;49.020;8.644;2022-11-02T04:38:37;99824.41;;;16.75;57.82
40574;BME280;26283;49.020;8.644;2022-11-02T04:41:08;99826.28;;;16.74;57.80
40574;BME280;26283;49.020;8.644;2022-11-02T04:43:53;99829.00;;;16.74;57.88
40574;BME280;26283;49.020;8.644;2022-11-02T04:46:19;99835.53;;;16.73;57.68
40574;BME280;26283;49.020;8.644;2022-11-02T04:48:45;99849.37;;;16.72;57.77
40574;BME280;26283;49.020;8.644;2022-11-02T04:51:11;99848.56;;;16.71;57.74
40574;BME280;26283;49.020;8.644;2022-11-02T04:53:36;99850.19;;;16.72;57.75
40574;BME280;26283;49.020;8.644;2022-11-02T04:56:02;99855.06;;;16.70;57.68
40574;BME280;26283;49.020;8.644;2022-11-02T04:58:27;99864.06;;;16.71;57.63
40574;BME280;26283;49.020;8.644;2022-11-02T05:00:53;99871.37;;;16.70;57.63
40574;BME280;26283;49.020;8.644;2022-11-02T05:03:18;99863.22;;;16.70;57.71
40574;BME280;26283;49.020;8.644;2022-11-02T05:05:43;99862.63;;;16.68;57.83
40574;BME280;26283;49.020;8.644;2022-11-02T05:08:09;99867.25;;;16.68;57.84
40574;BME280;26283;49.020;8.644;2022-11-02T05:10:34;99871.63;;;16.69;57.94
40574;BME280;26283;49.020;8.644;2022-11-02T05:13:00;99880.03;;;16.67;57.99
40574;BME280;26283;49.020;8.644;2022-11-02T05:15:26;99880.88;;;16.68;58.06
40574;BME280;26283;49.020;8.644;2022-11-02T05:17:51;99885.75;;;16.66;58.12
40574;BME280;26283;49.020;8.644;2022-11-02T05:20:17;99890.12;;;16.67;58.11
40574;BME280;26283;49.020;8.644;2022-11-02T05:22:42;99884.69;;;16.67;58.19
40574;BME280;26283;49.020;8.644;2022-11-02T05:25:09;99886.81;;;16.65;58.21
40574;BME280;26283;49.020;8.644;2022-11-02T05:27:34;99892.25;;;16.65;58.25
40574;BME280;26283;49.020;8.644;2022-11-02T05:30:00;99886.00;;;16.64;58.30
40574;BME280;26283;49.020;8.644;2022-11-02T05:32:28;99889.78;;;16.63;58.37
40574;BME280;26283;49.020;8.644;2022-11-02T05:34:53;99890.62;;;16.64;58.53
40574;BME280;26283;49.020;8.644;2022-11-02T05:37:23;99895.22;;;16.63;58.48
40574;BME280;26283;49.020;8.644;2022-11-02T05:39:51;99897.09;;;16.63;58.68
40574;BME280;26283;49.020;8.644;2022-11-02T05:42:19;99900.06;;;16.61;58.80
40574;BME280;26283;49.020;8.644;2022-11-02T05:44:44;99901.94;;;16.61;58.84
40574;BME280;26283;49.020;8.644;2022-11-02T05:47:10;99907.38;;;16.61;58.97
40574;BME280;26283;49.020;8.644;2022-11-02T05:49:35;99916.63;;;16.60;59.09
40574;BME280;26283;49.020;8.644;2022-11-02T05:52:00;99912.00;;;16.60;59.10
40574;BME280;26283;49.020;8.644;2022-11-02T05:54:27;99922.88;;;16.60;59.14
40574;BME280;26283;49.020;8.644;2022-11-02T05:57:07;99927.50;;;16.60;59.26
40574;BME280;26283;49.020;8.644;2022-11-02T05:59:38;99943.25;;;16.58;59.66
40574;BME280;26283;49.020;8.644;2022-11-02T06:02:04;99936.72;;;16.59;59.81
40574;BME280;26283;49.020;8.644;2022-11-02T06:04:38;99927.97;;;16.57;59.86
40574;BME280;26283;49.020;8.644;2022-11-02T06:07:03;99931.78;;;16.56;60.17
40574;BME280;26283;49.020;8.644;2022-11-02T06:09:28;99930.13;;;16.55;60.14
40574;BME280;26283;49.020;8.644;2022-11-02T06:11:55;99930.13;;;16.55;60.25
40574;BME280;26283;49.020;8.644;2022-11-02T06:14:20;99932.00;;;16.54;60.34
40574;BME280;26283;49.020;8.644;2022-11-02T06:16:45;99935.56;;;16.55;60.49
40574;BME280;26283;49.020;8.644;2022-11-02T06:19:11;99939.34;;;16.54;60.54
40574;BME280;26283;49.020;8.644;2022-11-02T06:21:36;99932.25;;;16.53;60.64
40574;BME280;26283;49.020;8.644;2022-11-02T06:24:02;99946.09;;;16.51;60.79
40574;BME280;26283;49.020;8.644;2022-11-02T06:26:27;99942.78;;;16.49;60.84
40574;BME280;26283;49.020;8.644;2022-11-02T06:28:52;99939.22;;;16.49;60.90
40574;BME280;26283;49.020;8.644;2022-11-02T06:31:18;99941.94;;;16.49;60.98
40574;BME280;26283;49.020;8.644;2022-11-02T06:33:43;99956.63;;;16.48;61.10
40574;BME280;26283;49.020;8.644;2022-11-02T06:36:09;99959.56;;;16.46;61.12
40574;BME280;26283;49.020;8.644;2022-11-02T06:38:35;99964.19;;;16.45;61.23
40574;BME280;26283;49.020;8.644;2022-11-02T06:41:02;99970.72;;;16.44;61.33
40574;BME280;26283;49.020;8.644;2022-11-02T06:43:29;99972.63;;;16.44;61.33
40574;BME280;26283;49.020;8.644;2022-11-02T06:45:56;99975.34;;;16.44;61.29
40574;BME280;26283;49.020;8.644;2022-11-02T06:48:22;99987.88;;;16.45;61.36
40574;BME280;26283;49.020;8.644;2022-11-02T06:50:48;99987.28;;;16.43;61.40
40574;BME280;26283;49.020;8.644;2022-11-02T06:53:13;99993.56;;;16.43;61.52
40574;BME280;26283;49.020;8.644;2022-11-02T06:55:39;99996.75;;;16.40;61.63
40574;BME280;26283;49.020;8.644;2022-11-02T06:58:04;100003.25;;;16.39;61.68
40574;BME280;26283;49.020;8.644;2022-11-02T07:00:30;100010.81;;;16.37;61.69
40574;BME280;26283;49.020;8.644;2022-11-02T07:03:04;100002.66;;;16.37;61.83
40574;BME280;26283;49.020;8.644;2022-11-02T07:05:31;100013.78;;;16.36;61.89
40574;BME280;26283;49.020;8.644;2022-11-02T07:07:57;100021.13;;;16.35;61.82
40574;BME280;26283;49.020;8.644;2022-11-02T07:10:23;100016.75;;;16.34;61.88
40574;BME280;26283;49.020;8.644;2022-11-02T07:12:52;100023.25;;;16.33;61.89
40574;BME280;26283;49.020;8.644;2022-11-02T07:15:19;100019.69;;;16.33;61.96
40574;BME280;26283;49.020;8.644;2022-11-02T07:17:45;100016.97;;;16.33;61.91
40574;BME280;26283;49.020;8.644;2022-11-02T07:20:10;100034.72;;;16.35;61.87
40574;BME280;26283;49.020;8.644;2022-11-02T07:22:36;100034.94;;;16.34;61.92
40574;BME280;26283;49.020;8.644;2022-11-02T07:25:02;100027.03;;;16.32;61.89
40574;BME280;26283;49.020;8.644;2022-11-02T07:27:27;100038.97;;;16.31;61.97
40574;BME280;26283;49.020;8.644;2022-11-02T07:29:52;100060.72;;;16.31;62.03
40574;BME280;26283;49.020;8.644;2022-11-02T07:32:18;100062.38;;;16.32;62.37
40574;BME280;26283;49.020;8.644;2022-11-02T07:34:43;100071.13;;;16.34;62.40
40574;BME280;26283;49.020;8.644;2022-11-02T07:37:08;100068.19;;;16.36;62.42
40574;BME280;26283;49.020;8.644;2022-11-02T07:39:34;100067.34;;;16.35;62.44
40574;BME280;26283;49.020;8.644;2022-11-02T07:41:59;100067.34;;;16.35;62.42
40574;BME280;26283;49.020;8.644;2022-11-02T07:44:25;100067.94;;;16.37;62.42
40574;BME280;26283;49.020;8.644;2022-11-02T07:46:50;100071.50;;;16.38;62.41
40574;BME280;26283;49.020;8.644;2022-11-02T07:49:16;100070.66;;;16.37;62.42
40574;BME280;26283;49.020;8.644;2022-11-02T07:51:41;100074.22;;;16.38;62.42
40574;BME280;26283;49.020;8.644;2022-11-02T07:54:07;100080.50;;;16.38;62.42
40574;BME280;26283;49.020;8.644;2022-11-02T07:56:33;100076.94;;;16.38;62.43
40574;BME280;26283;49.020;8.644;2022-11-02T07:58:58;100075.06;;;16.38;62.43
40574;BME280;26283;49.020;8.644;2022-11-02T08:01:24;100078.59;;;16.39;62.42
40574;BME280;26283;49.020;8.644;2022-11-02T08:03:49;100083.81;;;16.40;62.42
40574;BME280;26283;49.020;8.644;2022-11-02T08:06:15;100083.22;;;16.38;62.41
40574;BME280;26283;49.020;8.644;2022-11-02T08:08:40;100086.75;;;16.39;62.40
40574;BME280;26283;49.020;8.644;2022-11-02T08:11:07;100089.47;;;16.39;62.40
40574;BME280;26283;49.020;8.644;2022-11-02T08:13:34;100101.19;;;16.39;62.41
40574;BME280;26283;49.020;8.644;2022-11-02T08:15:59;100096.56;;;16.40;62.41
40574;BME280;26283;49.020;8.644;2022-11-02T08:18:27;100095.75;;;16.39;62.41
40574;BME280;26283;49.020;8.644;2022-11-02T08:21:00;100096.56;;;16.40;62.42
40574;BME280;26283;49.020;8.644;2022-11-02T08:23:26;100089.47;;;16.39;62.43
40574;BME280;26283;49.020;8.644;2022-11-02T08:25:52;100095.50;;;16.41;62.42
40574;BME280;26283;49.020;8.644;2022-11-02T08:28:27;100100.12;;;16.40;62.43
40574;BME280;26283;49.020;8.644;2022-11-02T08:30:54;100103.91;;;16.39;62.45
40574;BME280;26283;49.020;8.644;2022-11-02T08:33:20;100103.69;;;16.41;62.42
40574;BME280;26283;49.020;8.644;2022-11-02T08:35:46;100101.19;;;16.39;62.45
40574;BME280;26283;49.020;8.644;2022-11-02T08:38:12;100100.12;;;16.40;62.46
40574;BME280;26283;49.020;8.644;2022-11-02T08:40:38;100105.81;;;16.39;62.46
40574;BME280;26283;49.020;8.644;2022-11-02T08:43:06;100104.97;;;16.38;62.47
40574;BME280;26283;49.020;8.644;2022-11-02T08:45:33;100112.06;;;16.39;62.47
40574;BME280;26283;49.020;8.644;2022-11-02T08:47:59;100111.00;;;16.40;62.45
40574;BME280;26283;49.020;8.644;2022-11-02T08:50:25;100112.91;;;16.40;62.45
40574;BME280;26283;49.020;8.644;2022-11-02T08:52:51;100115.37;;;16.41;62.47
40574;BME280;26283;49.020;8.644;2022-11-02T08:55:17;100112.91;;;16.40;62.46
40574;BME280;26283;49.020;8.644;2022-11-02T08:57:50;100112.91;;;16.40;62.46
40574;BME280;26283;49.020;8.644;2022-11-02T09:00:17;100114.78;;;16.39;62.47
40574;BME280;26283;49.020;8.644;2022-11-02T09:02:43;100123.78;;;16.40;62.47
40574;BME280;26283;49.020;8.644;2022-11-02T09:05:09;100119.16;;;16.40;62.47
40574;BME280;26283;49.020;8.644;2022-11-02T09:07:36;100131.72;;;16.41;62.50
40574;BME280;26283;49.020;8.644;2022-11-02T09:10:02;100119.41;;;16.39;62.48
40574;BME280;26283;49.020;8.644;2022-11-02T09:12:27;100120.22;;;16.39;62.48
40574;BME280;26283;49.020;8.644;2022-11-02T09:14:52;100128.41;;;16.39;62.48
40574;BME280;26283;49.020;8.644;2022-11-02T09:17:18;100127.34;;;16.40;62.48
40574;BME280;26283;49.020;8.644;2022-11-02T09:19:43;100124.63;;;16.40;62.46
40574;BME280;26283;49.020;8.644;2022-11-02T09:22:09;100132.78;;;16.40;62.47
40574;BME280;26283;49.020;8.644;2022-11-02T09:24:34;100137.38;;;16.40;62.48
40574;BME280;26283;49.020;8.644;2022-11-02T09:26:59;100127.34;;;16.40;62.47
40574;BME280;26283;49.020;8.644;2022-11-02T09:29:25;100139.28;;;16.39;62.46
40574;BME280;26283;49.020;8.644;2022-11-02T09:31:50;100136.31;;;16.41;62.48
40574;BME280;26283;49.020;8.644;2022-11-02T09:34:16;100135.50;;;16.40;62.46
40574;BME280;26283;49.020;8.644;2022-11-02T09:36:41;100137.38;;;16.40;62.46
40574;BME280;26283;49.020;8.644;2022-11-02T09:39:07;100130.06;;;16.40;62.48
40574;BME280;26283;49.020;8.644;2022-11-02T09:41:46;100132.78;;;16.40;62.49
40574;BME280;26283;49.020;8.644;2022-11-02T09:44:24;100130.88;;;16.41;62.51
40574;BME280;26283;49.020;8.644;2022-11-02T09:46:52;100130.06;;;16.40;62.48
40574;BME280;26283;49.020;8.644;2022-11-02T09:49:23;100132.78;;;16.40;62.49
40574;BME280;26283;49.020;8.644;2022-11-02T09:51:55;100135.50;;;16.40;62.50
40574;BME280;26283;49.020;8.644;2022-11-02T09:54:26;100140.09;;;16.40;62.51
40574;BME280;26283;49.020;8.644;2022-11-02T09:56:56;100136.56;;;16.39;62.53
40574;BME280;26283;49.020;8.644;2022-11-02T09:59:25;100143.88;;;16.39;62.56
40574;BME280;26283;49.020;8.644;2022-11-02T10:09:59;100148.50;;;16.38;62.58
40574;BME280;26283;49.020;8.644;2022-11-02T10:15:20;100146.59;;;16.39;62.62
40574;BME280;26283;49.020;8.644;2022-11-02T10:17:49;100144.72;;;16.39;62.59
40574;BME280;26283;49.020;8.644;2022-11-02T10:20:25;100143.88;;;16.39;62.58
40574;BME280;26283;49.020;8.644;2022-11-02T10:22:54;100139.28;;;16.39;62.57
40574;BME280;26283;49.020;8.644;2022-11-02T10:25:24;100145.31;;;16.41;62.53
40574;BME280;26283;49.020;8.644;2022-11-02T10:27:53;100139.41;;;16.44;62.48
40574;BME280;26283;49.020;8.644;2022-11-02T10:30:25;100136.69;;;16.44;62.43
40574;BME280;26283;49.020;8.644;2022-11-02T10:32:53;100124.72;;;16.45;62.37
40574;BME280;26283;49.020;8.644;2022-11-02T10:43:37;100135.72;;;16.51;62.29
40574;BME280;26283;49.020;8.644;2022-11-02T10:51:14;100149.91;;;16.53;62.23
40574;BME280;26283;49.020;8.644;2022-11-02T10:53:50;100133.59;;;16.53;62.24
40574;BME280;26283;49.020;8.644;2022-11-02T10:56:24;100140.69;;;16.54;62.22
40574;BME280;26283;49.020;8.644;2022-11-02T10:59:01;100143.19;;;16.55;62.18
40574;BME280;26283;49.020;8.644;2022-11-02T11:01:28;100133.94;;;16.56;62.16
40574;BME280;26283;49.020;8.644;2022-11-02T11:03:55;100140.22;;;16.57;62.11
40574;BME280;26283;49.020;8.644;2022-11-02T11:06:36;100140.22;;;16.57;62.09
40574;BME280;26283;49.020;8.644;2022-11-02T11:09:04;100148.16;;;16.58;62.09
40574;BME280;26283;49.020;8.644;2022-11-02T11:11:36;100140.81;;;16.59;62.05
40574;BME280;26283;49.020;8.644;2022-11-02T11:14:21;100139.75;;;16.60;62.04
40574;BME280;26283;49.020;8.644;2022-11-02T11:16:54;100142.25;;;16.61;62.04
40574;BME280;26283;49.020;8.644;2022-11-02T11:19:33;100140.34;;;16.62;62.00
40574;BME280;26283;49.020;8.644;2022-11-02T11:22:00;100131.34;;;16.61;61.98
40574;BME280;26283;49.020;8.644;2022-11-02T11:24:31;100129.69;;;16.60;61.96
40574;BME280;26283;49.020;8.644;2022-11-02T11:27:13;100121.31;;;16.62;61.97
40574;BME280;26283;49.020;8.644;2022-11-02T11:29:57;100120.03;;;16.64;61.96
40574;BME280;26283;49.020;8.644;2022-11-02T11:32:25;100114.59;;;16.64;61.93
40574;BME280;26283;49.020;8.644;2022-11-02T11:35:06;100126.31;;;16.65;61.90
40574;BME280;26283;49.020;8.644;2022-11-02T11:37:32;100114.59;;;16.64;61.92
40574;BME280;26283;49.020;8.644;2022-11-02T11:40:05;100121.47;;;16.67;61.88
40574;BME280;26283;49.020;8.644;2022-11-02T11:42:41;100111.63;;;16.66;61.88
40574;BME280;26283;49.020;8.644;2022-11-02T11:45:17;100107.84;;;16.67;61.84
40574;BME280;26283;49.020;8.644;2022-11-02T11:47:44;100100.25;;;16.69;61.85
40574;BME280;26283;49.020;8.644;2022-11-02T11:50:15;100098.34;;;16.69;61.81
40574;BME280;26283;49.020;8.644;2022-11-02T11:52:42;100091.00;;;16.70;61.79
40574;BME280;26283;49.020;8.644;2022-11-02T11:55:24;100098.13;;;16.71;61.79
40574;BME280;26283;49.020;8.644;2022-11-02T11:58:14;100093.50;;;16.71;61.79
40574;BME280;26283;49.020;8.644;2022-11-02T12:00:41;100088.88;;;16.72;61.74
40574;BME280;26283;49.020;8.644;2022-11-02T12:03:08;100087.81;;;16.73;61.70
40574;BME280;26283;49.020;8.644;2022-11-02T12:39:02;100060.59;;;16.85;61.53
40574;BME280;26283;49.020;8.644;2022-11-02T12:44:43;100057.63;;;16.86;61.49
40574;BME280;26283;49.020;8.644;2022-11-02T12:47:22;100052.78;;;16.88;61.46
40574;BME280;26283;49.020;8.644;2022-11-02T12:50:07;100046.50;;;16.88;61.45
40574;BME280;26283;49.020;8.644;2022-11-02T12:55:16;100047.91;;;16.90;61.41
40574;BME280;26283;49.020;8.644;2022-11-02T12:57:44;100051.22;;;16.92;61.37
40574;BME280;26283;49.020;8.644;2022-11-02T13:00:19;100049.31;;;16.93;61.36
40574;BME280;26283;49.020;8.644;2022-11-02T13:02:53;100042.81;;;16.94;61.34
40574;BME280;26283;49.020;8.644;2022-11-02T13:05:29;100040.66;;;16.96;61.31
40574;BME280;26283;49.020;8.644;2022-11-02T13:08:13;100032.25;;;16.97;61.29
40574;BME280;26283;49.020;8.644;2022-11-02T13:10:44;100037.69;;;16.97;61.25
40574;BME280;26283;49.020;8.644;2022-11-02T13:13:14;100032.03;;;16.99;61.23
40574;BME280;26283;49.020;8.644;2022-11-02T13:15:42;100030.94;;;17.00;61.21
40574;BME280;26283;49.020;8.644;2022-11-02T13:18:18;100021.72;;;17.01;61.19
40574;BME280;26283;49.020;8.644;2022-11-02T13:20:54;100025.03;;;17.03;61.15
40574;BME280;26283;49.020;8.644;2022-11-02T13:23:35;100020.41;;;17.03;61.13
40574;BME280;26283;49.020;8.644;2022-11-02T13:26:08;100017.44;;;17.05;61.09
40574;BME280;26283;49.020;8.644;2022-11-02T13:28:51;100019.09;;;17.06;61.07
40574;BME280;26283;49.020;8.644;2022-11-02T13:31:28;100024.31;;;17.07;61.05
40574;BME280;26283;49.020;8.644;2022-11-02T13:33:59;100020.50;;;17.08;61.01
40574;BME280;26283;49.020;8.644;2022-11-02T13:36:26;100015.62;;;17.10;61.01
40574;BME280;26283;49.020;8.644;2022-11-02T13:39:18;100007.72;;;17.09;60.99
40574;BME280;26283;49.020;8.644;2022-11-02T13:45:28;100002.59;;;17.12;60.91
40574;BME280;26283;49.020;8.644;2022-11-02T13:51:09;100006.72;;;17.15;60.88
40574;BME280;26283;49.020;8.644;2022-11-02T13:53:38;100013.59;;;17.18;60.85
40574;BME280;26283;49.020;8.644;2022-11-02T13:56:11;100004.59;;;17.17;60.85
40574;BME280;26283;49.020;8.644;2022-11-02T13:58:48;100014.19;;;17.20;60.84
40574;BME280;26283;49.020;8.644;2022-11-02T14:01:18;100011.44;;;17.20;60.81
40574;BME280;26283;49.020;8.644;2022-11-02T14:03:51;100018.56;;;17.21;60.80
40574;BME280;26283;49.020;8.644;2022-11-02T14:06:19;100018.31;;;17.22;60.79
40574;BME280;26283;49.020;8.644;2022-11-02T14:08:55;100014.53;;;17.23;60.76
40574;BME280;26283;49.020;8.644;2022-11-02T14:40:34;99986.37;;;17.34;60.54
40574;BME280;26283;49.020;8.644;2022-11-02T14:48:50;99998.69;;;17.37;60.48
40574;BME280;26283;49.020;8.644;2022-11-02T14:53:57;99989.44;;;17.38;60.49
40574;BME280;26283;49.020;8.644;2022-11-02T14:59:23;99979.38;;;17.38;60.48
40574;BME280;26283;49.020;8.644;2022-11-02T15:01:56;99974.75;;;17.39;60.45
40574;BME280;26283;49.020;8.644;2022-11-02T15:04:23;99972.63;;;17.41;60.43
40574;BME280;26283;49.020;8.644;2022-11-02T15:06:52;99970.97;;;17.40;60.43
40574;BME280;26283;49.020;8.644;2022-11-02T15:09:51;99960.88;;;17.40;60.41
40574;BME280;26283;49.020;8.644;2022-11-02T15:12:35;99969.87;;;17.41;60.40
40574;BME280;26283;49.020;8.644;2022-11-02T15:15:31;99972.38;;;17.42;60.37
40574;BME280;26283;49.020;8.644;2022-11-02T15:22:53;99968.56;;;17.43;60.35
40574;BME280;26283;49.020;8.644;2022-11-02T15:25:38;99968.31;;;17.45;60.35
40574;BME280;26283;49.020;8.644;2022-11-02T15:28:09;99968.31;;;17.45;60.33
40574;BME280;26283;49.020;8.644;2022-11-02T15:30:41;99956.59;;;17.44;60.31
40574;BME280;26283;49.020;8.644;2022-11-02T15:33:16;99953.63;;;17.46;60.29
40574;BME280;26283;49.020;8.644;2022-11-02T15:35:44;99953.63;;;17.46;60.28